Schuylkill — WDD9655 — position and weather

sailwx.info

Track history (hours):
 
Tides and Currents Weather Stations Pressure Air Temp Water Temp Dewpoint Dewpoint Depression Visibility Wind Speed Wind Dir Waves Ship Positions

Schuylkill

Owner: Vane Line Bunkering, Philadelphia, PA. More information available from US FCC via Universal Licensing System and Coast Guard Vessel Documentation Center.

Last reported at 2018-Jun-18 12:11 UTC. Time now 2018-Jun-19 17:59 UTC.
Position N 38°20' W 075°40'.

Length 26 m; draft 4.2 m.

Type: Towing. MMSI: 367314490.

Date/timePositionNaut miles runAvg speedWind from/ knotsBaromVisibWave heightAir tempDewpointWater temp
2018-Jun-18 12:11N 38°20' W 075°40'2 5.1
2018-Jun-18 11:47N 38°21' W 075°43'2 4.2
2018-Jun-18 11:25N 38°20' W 075°44'2 4.5
2018-Jun-18 11:00N 38°18' W 075°46'3 5.1
2018-Jun-18 10:28N 38°16' W 075°48'3 5.3
2018-Jun-18 09:59N 38°15' W 075°51'3 5.6
2018-Jun-18 09:30N 38°13' W 075°53'4 6.8
2018-Jun-18 08:59N 38°12' W 075°57'1 2.2
2018-Jun-18 08:30N 38°12' W 075°58'0 0.1
2018-Jun-18 07:59N 38°12' W 075°58'0 0.0
2018-Jun-18 07:30N 38°12' W 075°58'0 0.1
2018-Jun-18 06:59N 38°12' W 075°58'0 0.0
2018-Jun-18 06:30N 38°12' W 075°58'0 0.1
2018-Jun-18 05:39N 38°12' W 075°59'0 0.2
2018-Jun-18 05:29N 38°12' W 075°59'0 0.1
2018-Jun-18 04:59N 38°12' W 075°59'0 0.0
2018-Jun-18 03:32N 38°12' W 075°59'0 0.0
2018-Jun-18 03:22N 38°12' W 075°59'41 3.6
2018-Jun-17 16:02N 38°47' W 076°27'0 8.3
2018-Jun-17 16:00N 38°47' W 076°27'4 8.0
2018-Jun-17 15:30N 38°51' W 076°26'4 7.7
2018-Jun-17 15:00N 38°55' W 076°25'4 7.4
2018-Jun-17 14:28N 38°59' W 076°23'3 7.1
2018-Jun-17 14:00N 39°02' W 076°22'4 6.8
2018-Jun-17 13:28N 39°05' W 076°21'3 7.0
2018-Jun-17 13:00N 39°09' W 076°19'3 6.8
2018-Jun-17 12:30N 39°11' W 076°17'3 7.0
2018-Jun-17 12:00N 39°14' W 076°15'4 7.3
2018-Jun-17 11:29N 39°18' W 076°13'4 7.5
2018-Jun-17 11:00N 39°21' W 076°10'4 8.1
2018-Jun-17 10:30N 39°23' W 076°06'16 8.4
2018-Jun-17 08:34N 39°32' W 075°48'1 9.4
2018-Jun-17 08:26N 39°32' W 075°47'4 9.8
2018-Jun-17 07:59N 39°33' W 075°41'5 9.5
2018-Jun-17 07:29N 39°33' W 075°35'1 2.7
2018-Jun-17 06:59N 39°35' W 075°35'1 1.5
2018-Jun-17 06:30N 39°35' W 075°36'0 0.0
2018-Jun-17 06:00N 39°35' W 075°36'0 0.0
2018-Jun-17 05:30N 39°35' W 075°36'0 0.0
2018-Jun-17 05:00N 39°35' W 075°36'0 0.0
2018-Jun-17 04:29N 39°35' W 075°36'0 0.0
2018-Jun-17 04:00N 39°35' W 075°36'0 0.0
2018-Jun-17 03:30N 39°35' W 075°36'0 0.0
2018-Jun-17 03:00N 39°35' W 075°36'0 0.0
2018-Jun-17 02:30N 39°35' W 075°36'0 0.0
2018-Jun-17 02:00N 39°35' W 075°36'0 0.0
2018-Jun-17 01:30N 39°35' W 075°36'0 0.0
2018-Jun-17 01:00N 39°35' W 075°36'0 0.0
2018-Jun-17 00:30N 39°35' W 075°36'0 0.0
2018-Jun-17 00:00N 39°35' W 075°36'0 0.0
2018-Jun-16 23:30N 39°35' W 075°36'0 0.0
2018-Jun-16 23:00N 39°35' W 075°36'0 0.0
2018-Jun-16 22:30N 39°35' W 075°36'0 0.0
2018-Jun-16 22:00N 39°35' W 075°36'0 0.0
2018-Jun-16 21:30N 39°35' W 075°36'0 0.0
2018-Jun-16 21:00N 39°35' W 075°36'0 0.0
2018-Jun-16 20:30N 39°35' W 075°36'0 0.0
2018-Jun-16 20:00N 39°35' W 075°36'0 0.0
2018-Jun-16 19:30N 39°35' W 075°36'1 1.3
2018-Jun-16 19:00N 39°36' W 075°36'2 3.9
2018-Jun-16 18:30N 39°38' W 075°36'3 5.9
2018-Jun-16 18:00N 39°40' W 075°33'3 5.9
2018-Jun-16 17:31N 39°42' W 075°31'3 6.0
2018-Jun-16 17:00N 39°45' W 075°30'3 6.4
2018-Jun-16 16:30N 39°47' W 075°27'4 7.5
2018-Jun-16 16:00N 39°49' W 075°23'4 8.3
2018-Jun-16 15:30N 39°51' W 075°18'5 9.6
2018-Jun-16 15:00N 39°53' W 075°12'1 1.8
2018-Jun-16 14:30N 39°54' W 075°12'0 0.0
2018-Jun-16 14:00N 39°54' W 075°12'0 0.2
2018-Jun-16 13:30N 39°54' W 075°12'0 0.1
2018-Jun-16 12:58N 39°54' W 075°12'1 1.3
2018-Jun-16 12:30N 39°53' W 075°12'0 0.0
2018-Jun-16 12:00N 39°53' W 075°12'0 0.0
2018-Jun-16 11:30N 39°53' W 075°12'0 0.0
2018-Jun-16 11:00N 39°53' W 075°12'0 0.1
2018-Jun-16 10:30N 39°54' W 075°12'1 1.0
2018-Jun-16 10:00N 39°54' W 075°12'0 0.0
2018-Jun-16 09:30N 39°54' W 075°12'0 0.0
2018-Jun-16 09:00N 39°54' W 075°12'0 0.0
2018-Jun-16 08:30N 39°54' W 075°12'1 1.5
2018-Jun-16 08:00N 39°53' W 075°12'4 8.9
2018-Jun-16 07:30N 39°51' W 075°17'5 9.9
2018-Jun-16 07:01N 39°49' W 075°23'510.1
2018-Jun-16 06:30N 39°46' W 075°28'510.4
2018-Jun-16 06:00N 39°41' W 075°31'510.2
2018-Jun-16 05:30N 39°37' W 075°35'4 7.2
2018-Jun-16 05:00N 39°34' W 075°34'3 6.6
2018-Jun-16 04:30N 39°33' W 075°38'3 7.1
2018-Jun-16 04:01N 39°33' W 075°43'4 7.9
2018-Jun-16 03:29N 39°32' W 075°48'5 7.9
2018-Jun-16 02:53N 39°31' W 075°54'38 7.8
2018-Jun-15 22:05N 39°00' W 076°23'1 8.2
2018-Jun-15 22:01N 38°60' W 076°23'4 7.9
2018-Jun-15 21:30N 38°56' W 076°24'4 8.0
2018-Jun-15 21:00N 38°52' W 076°26'  
2018-Jun-11 11:29N 38°47' W 076°27'4 7.8
2018-Jun-11 11:00N 38°51' W 076°26'4 7.7
2018-Jun-11 10:30N 38°55' W 076°25'4 7.6
2018-Jun-11 09:59N 38°58' W 076°23'3 7.1
2018-Jun-11 09:30N 39°02' W 076°22'4 6.7
2018-Jun-11 08:57N 39°05' W 076°21'17 6.6
2018-Jun-11 06:18N 39°21' W 076°11'3 7.6
2018-Jun-11 05:57N 39°22' W 076°08'3 7.8
2018-Jun-11 05:31N 39°24' W 076°04'4 8.3
2018-Jun-11 05:01N 39°27' W 075°60'4 8.7
2018-Jun-11 04:30N 39°30' W 075°56'5 9.3
2018-Jun-11 04:01N 39°32' W 075°51'5 9.1
2018-Jun-11 03:31N 39°32' W 075°45'5 9.9
2018-Jun-11 02:59N 39°33' W 075°38'4 7.9
2018-Jun-11 02:31N 39°34' W 075°33'2 4.3
2018-Jun-11 02:00N 39°35' W 075°36'0 0.0
2018-Jun-11 01:30N 39°35' W 075°36'0 0.0
2018-Jun-11 01:00N 39°35' W 075°36'0 0.0
2018-Jun-11 00:30N 39°35' W 075°36'0 0.0
2018-Jun-11 00:00N 39°35' W 075°36'0 0.0
2018-Jun-10 23:30N 39°35' W 075°36'0 0.0
2018-Jun-10 23:00N 39°35' W 075°36'0 0.0
2018-Jun-10 22:30N 39°35' W 075°36'0 0.0
2018-Jun-10 22:01N 39°35' W 075°36'0 0.0
2018-Jun-10 21:30N 39°35' W 075°36'0 0.0
2018-Jun-10 21:00N 39°35' W 075°36'0 0.0
2018-Jun-10 20:29N 39°35' W 075°36'0 0.1
2018-Jun-10 19:59N 39°35' W 075°36'0 0.1
2018-Jun-10 19:30N 39°35' W 075°36'2 4.6
2018-Jun-10 18:59N 39°34' W 075°33'1 2.2
2018-Jun-10 18:30N 39°33' W 075°33'0 0.1
2018-Jun-10 18:00N 39°33' W 075°33'0 0.0
2018-Jun-10 17:30N 39°33' W 075°33'0 0.0
2018-Jun-10 17:00N 39°33' W 075°33'0 0.0
2018-Jun-10 16:30N 39°33' W 075°33'0 0.0
2018-Jun-10 16:00N 39°33' W 075°33'0 0.0
2018-Jun-10 15:30N 39°33' W 075°33'0 0.1
2018-Jun-10 15:00N 39°33' W 075°33'0 0.2
2018-Jun-10 14:00N 39°33' W 075°33'0 0.0
2018-Jun-10 13:30N 39°33' W 075°33'0 0.0
2018-Jun-10 13:00N 39°33' W 075°33'0 0.0
2018-Jun-10 12:30N 39°33' W 075°33'0 0.0
2018-Jun-10 12:00N 39°33' W 075°33'0 0.0
2018-Jun-10 11:30N 39°33' W 075°33'0 0.0
2018-Jun-10 11:00N 39°33' W 075°33'0 0.0
2018-Jun-10 10:30N 39°33' W 075°33'0 0.0
2018-Jun-10 10:00N 39°33' W 075°33'0 0.0
2018-Jun-10 09:30N 39°33' W 075°33'0 0.2
2018-Jun-10 09:00N 39°33' W 075°33'0 0.3
2018-Jun-10 08:30N 39°33' W 075°33'0 0.0
2018-Jun-10 08:00N 39°33' W 075°33'0 0.1
2018-Jun-10 07:30N 39°33' W 075°33'0 0.0
2018-Jun-10 07:00N 39°33' W 075°33'0 0.0
2018-Jun-10 06:30N 39°33' W 075°33'0 0.0
2018-Jun-10 06:00N 39°33' W 075°33'0 0.0
2018-Jun-10 05:31N 39°33' W 075°33'0 0.0
2018-Jun-10 05:00N 39°33' W 075°33'0 0.0
2018-Jun-10 04:30N 39°33' W 075°33'0 0.0
2018-Jun-10 04:00N 39°33' W 075°33'0 0.0
2018-Jun-10 03:31N 39°33' W 075°33'0 0.1
2018-Jun-10 03:00N 39°33' W 075°33'0 0.2
2018-Jun-10 02:30N 39°33' W 075°33'0 0.1
2018-Jun-10 01:59N 39°33' W 075°33'0 0.1
2018-Jun-10 01:30N 39°33' W 075°33'0 0.0
2018-Jun-10 01:00N 39°33' W 075°33'0 0.0
2018-Jun-10 00:30N 39°33' W 075°33'0 0.0
2018-Jun-10 00:00N 39°33' W 075°33'0 0.0
2018-Jun-09 23:31N 39°33' W 075°33'0 0.0
2018-Jun-09 22:59N 39°33' W 075°33'0 0.0
2018-Jun-09 22:30N 39°33' W 075°33'0 0.0
2018-Jun-09 22:00N 39°33' W 075°33'0 0.0
2018-Jun-09 21:30N 39°33' W 075°33'0 0.0
2018-Jun-09 21:00N 39°33' W 075°33'0 0.0
2018-Jun-09 20:30N 39°33' W 075°33'0 0.1
2018-Jun-09 20:00N 39°33' W 075°33'0 0.3
2018-Jun-09 19:30N 39°33' W 075°33'1 1.4
2018-Jun-09 19:00N 39°33' W 075°33'4 8.3
2018-Jun-09 18:29N 39°37' W 075°35'5 9.7
2018-Jun-09 18:00N 39°41' W 075°31'916.0
2018-Jun-09 17:26N 39°49' W 075°24'3 5.8
2018-Jun-09 17:00N 39°50' W 075°22'4 8.2
2018-Jun-09 16:29N 39°51' W 075°16'611.5
2018-Jun-09 16:01N 39°53' W 075°10'1 1.3
2018-Jun-09 15:00N 39°54' W 075°08'0 0.0
2018-Jun-09 14:28N 39°54' W 075°08'0 0.0
2018-Jun-09 13:58N 39°54' W 075°08'0 0.0
2018-Jun-09 13:30N 39°54' W 075°08'0 0.0
2018-Jun-09 13:00N 39°54' W 075°08'0 0.0
2018-Jun-09 12:30N 39°54' W 075°08'0 0.0
2018-Jun-09 11:59N 39°54' W 075°08'0 0.0
2018-Jun-09 11:29N 39°54' W 075°08'0 0.0
2018-Jun-09 11:00N 39°54' W 075°08'0 0.0
2018-Jun-09 10:29N 39°54' W 075°08'0 0.2
2018-Jun-09 10:00N 39°54' W 075°08'3 5.7
2018-Jun-09 09:27N 39°53' W 075°12'4 7.7
2018-Jun-09 08:57N 39°51' W 075°16'3 6.7
2018-Jun-09 08:30N 39°51' W 075°20'4 7.8
2018-Jun-09 07:59N 39°48' W 075°25'3 5.8
2018-Jun-09 07:29N 39°47' W 075°28'4 7.8
2018-Jun-09 07:00N 39°44' W 075°30'2 3.9
2018-Jun-09 06:31N 39°42' W 075°31'3 6.8
2018-Jun-09 06:00N 39°39' W 075°33'3 5.9
2018-Jun-09 05:30N 39°36' W 075°34'3 5.2
2018-Jun-09 05:00N 39°33' W 075°35'4 7.9
2018-Jun-09 04:30N 39°33' W 075°40'4 7.6
2018-Jun-09 04:00N 39°32' W 075°45'4 7.4
2018-Jun-09 03:30N 39°32' W 075°50'4 7.3
2018-Jun-09 03:01N 39°30' W 075°54'4 7.4
2018-Jun-09 02:30N 39°28' W 075°58'4 7.8
2018-Jun-09 02:00N 39°25' W 076°01'4 7.4
2018-Jun-09 01:30N 39°23' W 076°05'4 7.3
2018-Jun-09 01:00N 39°21' W 076°09'4 7.1
2018-Jun-09 00:27N 39°18' W 076°13'3 7.5
2018-Jun-09 00:00N 39°15' W 076°14'16 8.0
2018-Jun-08 21:58N 39°00' W 076°23'4 8.5
2018-Jun-08 21:28N 38°56' W 076°24'4 8.7
2018-Jun-08 21:01N 38°52' W 076°25'46 5.9
2018-Jun-08 13:14N 38°15' W 075°49'1 5.2
2018-Jun-08 13:00N 38°16' W 075°48'3 5.6
2018-Jun-08 12:30N 38°18' W 075°46'  
Track history (hours):
 
Tides and Currents Weather Stations Pressure Air Temp Water Temp Dewpoint Dewpoint Depression Visibility Wind Speed Wind Dir Waves Ship Positions

Schuylkill

Owner: Vane Line Bunkering, Philadelphia, PA. More information available from US FCC via Universal Licensing System and Coast Guard Vessel Documentation Center.

Last reported at 2018-Jun-18 12:11 UTC. Time now 2018-Jun-19 17:59 UTC.
Position N 38°20' W 075°40'.

Length 26 m; draft 4.2 m.

Type: Towing. MMSI: 367314490.

Date/timePositionNaut miles runAvg speedWind from/ knotsBaromVisibWave heightAir tempDewpointWater temp
2018-Jun-18 12:11N 38°20' W 075°40'2 5.1
2018-Jun-18 11:47N 38°21' W 075°43'2 4.2
2018-Jun-18 11:25N 38°20' W 075°44'2 4.5
2018-Jun-18 11:00N 38°18' W 075°46'3 5.1
2018-Jun-18 10:28N 38°16' W 075°48'3 5.3
2018-Jun-18 09:59N 38°15' W 075°51'3 5.6
2018-Jun-18 09:30N 38°13' W 075°53'4 6.8
2018-Jun-18 08:59N 38°12' W 075°57'1 2.2
2018-Jun-18 08:30N 38°12' W 075°58'0 0.1
2018-Jun-18 07:59N 38°12' W 075°58'0 0.0
2018-Jun-18 07:30N 38°12' W 075°58'0 0.1
2018-Jun-18 06:59N 38°12' W 075°58'0 0.0
2018-Jun-18 06:30N 38°12' W 075°58'0 0.1
2018-Jun-18 05:39N 38°12' W 075°59'0 0.2
2018-Jun-18 05:29N 38°12' W 075°59'0 0.1
2018-Jun-18 04:59N 38°12' W 075°59'0 0.0
2018-Jun-18 03:32N 38°12' W 075°59'0 0.0
2018-Jun-18 03:22N 38°12' W 075°59'41 3.6
2018-Jun-17 16:02N 38°47' W 076°27'0 8.3
2018-Jun-17 16:00N 38°47' W 076°27'4 8.0
2018-Jun-17 15:30N 38°51' W 076°26'4 7.7
2018-Jun-17 15:00N 38°55' W 076°25'4 7.4
2018-Jun-17 14:28N 38°59' W 076°23'3 7.1
2018-Jun-17 14:00N 39°02' W 076°22'4 6.8
2018-Jun-17 13:28N 39°05' W 076°21'3 7.0
2018-Jun-17 13:00N 39°09' W 076°19'3 6.8
2018-Jun-17 12:30N 39°11' W 076°17'3 7.0
2018-Jun-17 12:00N 39°14' W 076°15'4 7.3
2018-Jun-17 11:29N 39°18' W 076°13'4 7.5
2018-Jun-17 11:00N 39°21' W 076°10'4 8.1
2018-Jun-17 10:30N 39°23' W 076°06'16 8.4
2018-Jun-17 08:34N 39°32' W 075°48'1 9.4
2018-Jun-17 08:26N 39°32' W 075°47'4 9.8
2018-Jun-17 07:59N 39°33' W 075°41'5 9.5
2018-Jun-17 07:29N 39°33' W 075°35'1 2.7
2018-Jun-17 06:59N 39°35' W 075°35'1 1.5
2018-Jun-17 06:30N 39°35' W 075°36'0 0.0
2018-Jun-17 06:00N 39°35' W 075°36'0 0.0
2018-Jun-17 05:30N 39°35' W 075°36'0 0.0
2018-Jun-17 05:00N 39°35' W 075°36'0 0.0
2018-Jun-17 04:29N 39°35' W 075°36'0 0.0
2018-Jun-17 04:00N 39°35' W 075°36'0 0.0
2018-Jun-17 03:30N 39°35' W 075°36'0 0.0
2018-Jun-17 03:00N 39°35' W 075°36'0 0.0
2018-Jun-17 02:30N 39°35' W 075°36'0 0.0
2018-Jun-17 02:00N 39°35' W 075°36'0 0.0
2018-Jun-17 01:30N 39°35' W 075°36'0 0.0
2018-Jun-17 01:00N 39°35' W 075°36'0 0.0
2018-Jun-17 00:30N 39°35' W 075°36'0 0.0
2018-Jun-17 00:00N 39°35' W 075°36'0 0.0
2018-Jun-16 23:30N 39°35' W 075°36'0 0.0
2018-Jun-16 23:00N 39°35' W 075°36'0 0.0
2018-Jun-16 22:30N 39°35' W 075°36'0 0.0
2018-Jun-16 22:00N 39°35' W 075°36'0 0.0
2018-Jun-16 21:30N 39°35' W 075°36'0 0.0
2018-Jun-16 21:00N 39°35' W 075°36'0 0.0
2018-Jun-16 20:30N 39°35' W 075°36'0 0.0
2018-Jun-16 20:00N 39°35' W 075°36'0 0.0
2018-Jun-16 19:30N 39°35' W 075°36'1 1.3
2018-Jun-16 19:00N 39°36' W 075°36'2 3.9
2018-Jun-16 18:30N 39°38' W 075°36'3 5.9
2018-Jun-16 18:00N 39°40' W 075°33'3 5.9
2018-Jun-16 17:31N 39°42' W 075°31'3 6.0
2018-Jun-16 17:00N 39°45' W 075°30'3 6.4
2018-Jun-16 16:30N 39°47' W 075°27'4 7.5
2018-Jun-16 16:00N 39°49' W 075°23'4 8.3
2018-Jun-16 15:30N 39°51' W 075°18'5 9.6
2018-Jun-16 15:00N 39°53' W 075°12'1 1.8
2018-Jun-16 14:30N 39°54' W 075°12'0 0.0
2018-Jun-16 14:00N 39°54' W 075°12'0 0.2
2018-Jun-16 13:30N 39°54' W 075°12'0 0.1
2018-Jun-16 12:58N 39°54' W 075°12'1 1.3
2018-Jun-16 12:30N 39°53' W 075°12'0 0.0
2018-Jun-16 12:00N 39°53' W 075°12'0 0.0
2018-Jun-16 11:30N 39°53' W 075°12'0 0.0
2018-Jun-16 11:00N 39°53' W 075°12'0 0.1
2018-Jun-16 10:30N 39°54' W 075°12'1 1.0
2018-Jun-16 10:00N 39°54' W 075°12'0 0.0
2018-Jun-16 09:30N 39°54' W 075°12'0 0.0
2018-Jun-16 09:00N 39°54' W 075°12'0 0.0
2018-Jun-16 08:30N 39°54' W 075°12'1 1.5
2018-Jun-16 08:00N 39°53' W 075°12'4 8.9
2018-Jun-16 07:30N 39°51' W 075°17'5 9.9
2018-Jun-16 07:01N 39°49' W 075°23'510.1
2018-Jun-16 06:30N 39°46' W 075°28'510.4
2018-Jun-16 06:00N 39°41' W 075°31'510.2
2018-Jun-16 05:30N 39°37' W 075°35'4 7.2
2018-Jun-16 05:00N 39°34' W 075°34'3 6.6
2018-Jun-16 04:30N 39°33' W 075°38'3 7.1
2018-Jun-16 04:01N 39°33' W 075°43'4 7.9
2018-Jun-16 03:29N 39°32' W 075°48'5 7.9
2018-Jun-16 02:53N 39°31' W 075°54'38 7.8
2018-Jun-15 22:05N 39°00' W 076°23'1 8.2
2018-Jun-15 22:01N 38°60' W 076°23'4 7.9
2018-Jun-15 21:30N 38°56' W 076°24'4 8.0
2018-Jun-15 21:00N 38°52' W 076°26'  
2018-Jun-11 11:29N 38°47' W 076°27'4 7.8
2018-Jun-11 11:00N 38°51' W 076°26'4 7.7
2018-Jun-11 10:30N 38°55' W 076°25'4 7.6
2018-Jun-11 09:59N 38°58' W 076°23'3 7.1
2018-Jun-11 09:30N 39°02' W 076°22'4 6.7
2018-Jun-11 08:57N 39°05' W 076°21'17 6.6
2018-Jun-11 06:18N 39°21' W 076°11'3 7.6
2018-Jun-11 05:57N 39°22' W 076°08'3 7.8
2018-Jun-11 05:31N 39°24' W 076°04'4 8.3
2018-Jun-11 05:01N 39°27' W 075°60'4 8.7
2018-Jun-11 04:30N 39°30' W 075°56'5 9.3
2018-Jun-11 04:01N 39°32' W 075°51'5 9.1
2018-Jun-11 03:31N 39°32' W 075°45'5 9.9
2018-Jun-11 02:59N 39°33' W 075°38'4 7.9
2018-Jun-11 02:31N 39°34' W 075°33'2 4.3
2018-Jun-11 02:00N 39°35' W 075°36'0 0.0
2018-Jun-11 01:30N 39°35' W 075°36'0 0.0
2018-Jun-11 01:00N 39°35' W 075°36'0 0.0
2018-Jun-11 00:30N 39°35' W 075°36'0 0.0
2018-Jun-11 00:00N 39°35' W 075°36'0 0.0
2018-Jun-10 23:30N 39°35' W 075°36'0 0.0
2018-Jun-10 23:00N 39°35' W 075°36'0 0.0
2018-Jun-10 22:30N 39°35' W 075°36'0 0.0
2018-Jun-10 22:01N 39°35' W 075°36'0 0.0
2018-Jun-10 21:30N 39°35' W 075°36'0 0.0
2018-Jun-10 21:00N 39°35' W 075°36'0 0.0
2018-Jun-10 20:29N 39°35' W 075°36'0 0.1
2018-Jun-10 19:59N 39°35' W 075°36'0 0.1
2018-Jun-10 19:30N 39°35' W 075°36'2 4.6
2018-Jun-10 18:59N 39°34' W 075°33'1 2.2
2018-Jun-10 18:30N 39°33' W 075°33'0 0.1
2018-Jun-10 18:00N 39°33' W 075°33'0 0.0
2018-Jun-10 17:30N 39°33' W 075°33'0 0.0
2018-Jun-10 17:00N 39°33' W 075°33'0 0.0
2018-Jun-10 16:30N 39°33' W 075°33'0 0.0
2018-Jun-10 16:00N 39°33' W 075°33'0 0.0
2018-Jun-10 15:30N 39°33' W 075°33'0 0.1
2018-Jun-10 15:00N 39°33' W 075°33'0 0.2
2018-Jun-10 14:00N 39°33' W 075°33'0 0.0
2018-Jun-10 13:30N 39°33' W 075°33'0 0.0
2018-Jun-10 13:00N 39°33' W 075°33'0 0.0
2018-Jun-10 12:30N 39°33' W 075°33'0 0.0
2018-Jun-10 12:00N 39°33' W 075°33'0 0.0
2018-Jun-10 11:30N 39°33' W 075°33'0 0.0
2018-Jun-10 11:00N 39°33' W 075°33'0 0.0
2018-Jun-10 10:30N 39°33' W 075°33'0 0.0
2018-Jun-10 10:00N 39°33' W 075°33'0 0.0
2018-Jun-10 09:30N 39°33' W 075°33'0 0.2
2018-Jun-10 09:00N 39°33' W 075°33'0 0.3
2018-Jun-10 08:30N 39°33' W 075°33'0 0.0
2018-Jun-10 08:00N 39°33' W 075°33'0 0.1
2018-Jun-10 07:30N 39°33' W 075°33'0 0.0
2018-Jun-10 07:00N 39°33' W 075°33'0 0.0
2018-Jun-10 06:30N 39°33' W 075°33'0 0.0
2018-Jun-10 06:00N 39°33' W 075°33'0 0.0
2018-Jun-10 05:31N 39°33' W 075°33'0 0.0
2018-Jun-10 05:00N 39°33' W 075°33'0 0.0
2018-Jun-10 04:30N 39°33' W 075°33'0 0.0
2018-Jun-10 04:00N 39°33' W 075°33'0 0.0
2018-Jun-10 03:31N 39°33' W 075°33'0 0.1
2018-Jun-10 03:00N 39°33' W 075°33'0 0.2
2018-Jun-10 02:30N 39°33' W 075°33'0 0.1
2018-Jun-10 01:59N 39°33' W 075°33'0 0.1
2018-Jun-10 01:30N 39°33' W 075°33'0 0.0
2018-Jun-10 01:00N 39°33' W 075°33'0 0.0
2018-Jun-10 00:30N 39°33' W 075°33'0 0.0
2018-Jun-10 00:00N 39°33' W 075°33'0 0.0
2018-Jun-09 23:31N 39°33' W 075°33'0 0.0
2018-Jun-09 22:59N 39°33' W 075°33'0 0.0
2018-Jun-09 22:30N 39°33' W 075°33'0 0.0
2018-Jun-09 22:00N 39°33' W 075°33'0 0.0
2018-Jun-09 21:30N 39°33' W 075°33'0 0.0
2018-Jun-09 21:00N 39°33' W 075°33'0 0.0
2018-Jun-09 20:30N 39°33' W 075°33'0 0.1
2018-Jun-09 20:00N 39°33' W 075°33'0 0.3
2018-Jun-09 19:30N 39°33' W 075°33'1 1.4
2018-Jun-09 19:00N 39°33' W 075°33'4 8.3
2018-Jun-09 18:29N 39°37' W 075°35'5 9.7
2018-Jun-09 18:00N 39°41' W 075°31'916.0
2018-Jun-09 17:26N 39°49' W 075°24'3 5.8
2018-Jun-09 17:00N 39°50' W 075°22'4 8.2
2018-Jun-09 16:29N 39°51' W 075°16'611.5
2018-Jun-09 16:01N 39°53' W 075°10'1 1.3
2018-Jun-09 15:00N 39°54' W 075°08'0 0.0
2018-Jun-09 14:28N 39°54' W 075°08'0 0.0
2018-Jun-09 13:58N 39°54' W 075°08'0 0.0
2018-Jun-09 13:30N 39°54' W 075°08'0 0.0
2018-Jun-09 13:00N 39°54' W 075°08'0 0.0
2018-Jun-09 12:30N 39°54' W 075°08'0 0.0
2018-Jun-09 11:59N 39°54' W 075°08'0 0.0
2018-Jun-09 11:29N 39°54' W 075°08'0 0.0
2018-Jun-09 11:00N 39°54' W 075°08'0 0.0
2018-Jun-09 10:29N 39°54' W 075°08'0 0.2
2018-Jun-09 10:00N 39°54' W 075°08'3 5.7
2018-Jun-09 09:27N 39°53' W 075°12'4 7.7
2018-Jun-09 08:57N 39°51' W 075°16'3 6.7
2018-Jun-09 08:30N 39°51' W 075°20'4 7.8
2018-Jun-09 07:59N 39°48' W 075°25'3 5.8
2018-Jun-09 07:29N 39°47' W 075°28'4 7.8
2018-Jun-09 07:00N 39°44' W 075°30'2 3.9
2018-Jun-09 06:31N 39°42' W 075°31'3 6.8
2018-Jun-09 06:00N 39°39' W 075°33'3 5.9
2018-Jun-09 05:30N 39°36' W 075°34'3 5.2
2018-Jun-09 05:00N 39°33' W 075°35'4 7.9
2018-Jun-09 04:30N 39°33' W 075°40'4 7.6
2018-Jun-09 04:00N 39°32' W 075°45'4 7.4
2018-Jun-09 03:30N 39°32' W 075°50'4 7.3
2018-Jun-09 03:01N 39°30' W 075°54'4 7.4
2018-Jun-09 02:30N 39°28' W 075°58'4 7.8
2018-Jun-09 02:00N 39°25' W 076°01'4 7.4
2018-Jun-09 01:30N 39°23' W 076°05'4 7.3
2018-Jun-09 01:00N 39°21' W 076°09'4 7.1
2018-Jun-09 00:27N 39°18' W 076°13'3 7.5
2018-Jun-09 00:00N 39°15' W 076°14'16 8.0
2018-Jun-08 21:58N 39°00' W 076°23'4 8.5
2018-Jun-08 21:28N 38°56' W 076°24'4 8.7
2018-Jun-08 21:01N 38°52' W 076°25'46 5.9
2018-Jun-08 13:14N 38°15' W 075°49'1 5.2
2018-Jun-08 13:00N 38°16' W 075°48'3 5.6
2018-Jun-08 12:30N 38°18' W 075°46'  

Dump ship's entire track history